sensor_id;sensor_type;location;lat;lon;timestamp;P1;durP1;ratioP1;P2;durP2;ratioP2
68192;SDS011;55012;47.562;18.414;2022-11-15T00:01:55;31.05;;;14.10;;
68192;SDS011;55012;47.562;18.414;2022-11-15T00:04:20;28.23;;;13.80;;
68192;SDS011;55012;47.562;18.414;2022-11-15T00:06:46;25.48;;;12.90;;
68192;SDS011;55012;47.562;18.414;2022-11-15T00:09:11;26.00;;;13.70;;
68192;SDS011;55012;47.562;18.414;2022-11-15T00:11:37;27.58;;;13.73;;
68192;SDS011;55012;47.562;18.414;2022-11-15T00:14:02;25.73;;;13.35;;
68192;SDS011;55012;47.562;18.414;2022-11-15T00:16:28;28.02;;;13.10;;
68192;SDS011;55012;47.562;18.414;2022-11-15T00:18:53;26.83;;;13.55;;
68192;SDS011;55012;47.562;18.414;2022-11-15T00:21:19;25.77;;;13.60;;
68192;SDS011;55012;47.562;18.414;2022-11-15T00:23:44;27.10;;;13.25;;
68192;SDS011;55012;47.562;18.414;2022-11-15T00:26:13;27.45;;;13.68;;
68192;SDS011;55012;47.562;18.414;2022-11-15T00:28:40;29.95;;;13.98;;
68192;SDS011;55012;47.562;18.414;2022-11-15T00:31:07;27.75;;;13.82;;
68192;SDS011;55012;47.562;18.414;2022-11-15T00:33:36;27.92;;;13.07;;
68192;SDS011;55012;47.562;18.414;2022-11-15T00:36:08;25.67;;;13.00;;
68192;SDS011;55012;47.562;18.414;2022-11-15T00:38:35;28.50;;;13.57;;
68192;SDS011;55012;47.562;18.414;2022-11-15T00:41:02;24.95;;;12.20;;
68192;SDS011;55012;47.562;18.414;2022-11-15T00:43:29;26.63;;;13.30;;
68192;SDS011;55012;47.562;18.414;2022-11-15T00:45:55;25.02;;;13.32;;
68192;SDS011;55012;47.562;18.414;2022-11-15T00:48:20;26.58;;;12.82;;
68192;SDS011;55012;47.562;18.414;2022-11-15T00:50:46;27.45;;;12.57;;
68192;SDS011;55012;47.562;18.414;2022-11-15T00:53:12;23.70;;;12.45;;
68192;SDS011;55012;47.562;18.414;2022-11-15T00:55:37;25.55;;;12.57;;
68192;SDS011;55012;47.562;18.414;2022-11-15T00:58:02;29.20;;;12.95;;
68192;SDS011;55012;47.562;18.414;2022-11-15T01:00:28;26.30;;;13.20;;
68192;SDS011;55012;47.562;18.414;2022-11-15T01:02:54;24.33;;;12.23;;
68192;SDS011;55012;47.562;18.414;2022-11-15T01:05:19;25.85;;;13.00;;
68192;SDS011;55012;47.562;18.414;2022-11-15T01:07:45;28.83;;;13.35;;
68192;SDS011;55012;47.562;18.414;2022-11-15T01:10:11;24.50;;;12.82;;
68192;SDS011;55012;47.562;18.414;2022-11-15T01:12:37;28.02;;;13.07;;
68192;SDS011;55012;47.562;18.414;2022-11-15T01:15:02;25.02;;;12.77;;
68192;SDS011;55012;47.562;18.414;2022-11-15T01:17:30;24.05;;;12.55;;
68192;SDS011;55012;47.562;18.414;2022-11-15T01:19:55;27.08;;;12.43;;
68192;SDS011;55012;47.562;18.414;2022-11-15T01:22:21;27.15;;;12.95;;
68192;SDS011;55012;47.562;18.414;2022-11-15T01:24:46;30.02;;;12.82;;
68192;SDS011;55012;47.562;18.414;2022-11-15T01:27:12;27.20;;;13.10;;
68192;SDS011;55012;47.562;18.414;2022-11-15T01:29:37;26.38;;;12.93;;
68192;SDS011;55012;47.562;18.414;2022-11-15T01:32:03;30.25;;;12.57;;
68192;SDS011;55012;47.562;18.414;2022-11-15T01:34:28;28.52;;;13.23;;
68192;SDS011;55012;47.562;18.414;2022-11-15T01:36:54;28.58;;;13.00;;
68192;SDS011;55012;47.562;18.414;2022-11-15T01:39:19;26.00;;;12.95;;
68192;SDS011;55012;47.562;18.414;2022-11-15T01:41:45;25.17;;;12.93;;
68192;SDS011;55012;47.562;18.414;2022-11-15T01:47:28;30.30;;;13.32;;
68192;SDS011;55012;47.562;18.414;2022-11-15T01:52:39;27.75;;;12.57;;
68192;SDS011;55012;47.562;18.414;2022-11-15T01:55:21;26.45;;;12.68;;
68192;SDS011;55012;47.562;18.414;2022-11-15T01:57:50;25.77;;;12.52;;
68192;SDS011;55012;47.562;18.414;2022-11-15T02:00:20;22.40;;;11.82;;
68192;SDS011;55012;47.562;18.414;2022-11-15T02:02:46;29.13;;;12.95;;
68192;SDS011;55012;47.562;18.414;2022-11-15T02:05:11;25.05;;;11.95;;
68192;SDS011;55012;47.562;18.414;2022-11-15T02:07:37;28.77;;;12.30;;
68192;SDS011;55012;47.562;18.414;2022-11-15T02:10:10;25.38;;;12.55;;
68192;SDS011;55012;47.562;18.414;2022-11-15T02:12:38;25.30;;;12.77;;
68192;SDS011;55012;47.562;18.414;2022-11-15T02:15:04;28.52;;;13.20;;
68192;SDS011;55012;47.562;18.414;2022-11-15T02:20:51;30.77;;;13.25;;
68192;SDS011;55012;47.562;18.414;2022-11-15T02:29:41;36.50;;;13.77;;
68192;SDS011;55012;47.562;18.414;2022-11-15T02:34:56;38.63;;;18.45;;
68192;SDS011;55012;47.562;18.414;2022-11-15T02:37:34;44.17;;;21.42;;
68192;SDS011;55012;47.562;18.414;2022-11-15T02:40:13;43.05;;;20.63;;
68192;SDS011;55012;47.562;18.414;2022-11-15T02:42:50;43.70;;;19.58;;
68192;SDS011;55012;47.562;18.414;2022-11-15T02:45:40;33.75;;;17.27;;
68192;SDS011;55012;47.562;18.414;2022-11-15T02:48:11;39.10;;;19.00;;
68192;SDS011;55012;47.562;18.414;2022-11-15T02:50:37;36.10;;;18.00;;
68192;SDS011;55012;47.562;18.414;2022-11-15T02:53:03;31.77;;;16.67;;
68192;SDS011;55012;47.562;18.414;2022-11-15T02:58:19;28.55;;;14.50;;
68192;SDS011;55012;47.562;18.414;2022-11-15T03:11:35;49.92;;;25.15;;
68192;SDS011;55012;47.562;18.414;2022-11-15T03:22:12;33.80;;;15.77;;
68192;SDS011;55012;47.562;18.414;2022-11-15T03:24:43;34.13;;;16.38;;
68192;SDS011;55012;47.562;18.414;2022-11-15T03:27:12;31.90;;;15.02;;
68192;SDS011;55012;47.562;18.414;2022-11-15T03:29:44;34.28;;;16.40;;
68192;SDS011;55012;47.562;18.414;2022-11-15T03:32:17;30.70;;;15.60;;
68192;SDS011;55012;47.562;18.414;2022-11-15T03:35:09;25.70;;;13.20;;
68192;SDS011;55012;47.562;18.414;2022-11-15T03:40:29;31.77;;;15.70;;
68192;SDS011;55012;47.562;18.414;2022-11-15T03:43:02;26.92;;;13.80;;
68192;SDS011;55012;47.562;18.414;2022-11-15T03:45:41;28.23;;;13.38;;
68192;SDS011;55012;47.562;18.414;2022-11-15T03:48:14;27.67;;;13.18;;
68192;SDS011;55012;47.562;18.414;2022-11-15T03:50:44;28.48;;;13.60;;
68192;SDS011;55012;47.562;18.414;2022-11-15T03:53:11;27.98;;;13.57;;
68192;SDS011;55012;47.562;18.414;2022-11-15T03:55:37;33.40;;;13.25;;
68192;SDS011;55012;47.562;18.414;2022-11-15T03:58:03;26.73;;;12.90;;
68192;SDS011;55012;47.562;18.414;2022-11-15T04:00:28;28.27;;;12.73;;
68192;SDS011;55012;47.562;18.414;2022-11-15T04:02:54;31.30;;;14.27;;
68192;SDS011;55012;47.562;18.414;2022-11-15T04:05:19;27.13;;;13.13;;
68192;SDS011;55012;47.562;18.414;2022-11-15T04:07:45;29.15;;;13.70;;
68192;SDS011;55012;47.562;18.414;2022-11-15T04:10:11;28.42;;;12.77;;
68192;SDS011;55012;47.562;18.414;2022-11-15T04:12:38;29.20;;;12.90;;
68192;SDS011;55012;47.562;18.414;2022-11-15T04:15:11;26.05;;;12.50;;
68192;SDS011;55012;47.562;18.414;2022-11-15T04:17:39;25.33;;;12.82;;
68192;SDS011;55012;47.562;18.414;2022-11-15T04:23:02;25.25;;;13.18;;
68192;SDS011;55012;47.562;18.414;2022-11-15T04:25:49;36.15;;;14.82;;
68192;SDS011;55012;47.562;18.414;2022-11-15T04:28:16;41.58;;;16.70;;
68192;SDS011;55012;47.562;18.414;2022-11-15T04:30:42;38.70;;;16.67;;
68192;SDS011;55012;47.562;18.414;2022-11-15T04:33:08;32.47;;;15.70;;
68192;SDS011;55012;47.562;18.414;2022-11-15T04:35:33;31.80;;;14.98;;
68192;SDS011;55012;47.562;18.414;2022-11-15T04:37:59;30.27;;;15.10;;
68192;SDS011;55012;47.562;18.414;2022-11-15T04:40:25;30.00;;;14.27;;
68192;SDS011;55012;47.562;18.414;2022-11-15T04:42:51;30.08;;;15.32;;
68192;SDS011;55012;47.562;18.414;2022-11-15T04:45:16;33.70;;;17.00;;
68192;SDS011;55012;47.562;18.414;2022-11-15T04:47:45;37.85;;;17.92;;
68192;SDS011;55012;47.562;18.414;2022-11-15T04:50:12;44.15;;;20.80;;
68192;SDS011;55012;47.562;18.414;2022-11-15T04:52:39;42.45;;;20.50;;
68192;SDS011;55012;47.562;18.414;2022-11-15T04:55:07;39.53;;;20.08;;
68192;SDS011;55012;47.562;18.414;2022-11-15T04:57:32;37.72;;;18.60;;
68192;SDS011;55012;47.562;18.414;2022-11-15T04:59:58;35.13;;;17.30;;
68192;SDS011;55012;47.562;18.414;2022-11-15T05:02:23;31.70;;;16.27;;
68192;SDS011;55012;47.562;18.414;2022-11-15T05:04:49;34.05;;;16.38;;
68192;SDS011;55012;47.562;18.414;2022-11-15T05:07:14;34.92;;;17.42;;
68192;SDS011;55012;47.562;18.414;2022-11-15T05:09:40;49.47;;;23.33;;
68192;SDS011;55012;47.562;18.414;2022-11-15T05:12:05;43.25;;;21.98;;
68192;SDS011;55012;47.562;18.414;2022-11-15T05:14:30;49.42;;;23.10;;
68192;SDS011;55012;47.562;18.414;2022-11-15T05:16:56;38.90;;;19.63;;
68192;SDS011;55012;47.562;18.414;2022-11-15T05:19:21;33.25;;;17.13;;
68192;SDS011;55012;47.562;18.414;2022-11-15T05:21:47;35.00;;;16.70;;
68192;SDS011;55012;47.562;18.414;2022-11-15T05:24:13;42.25;;;18.05;;
68192;SDS011;55012;47.562;18.414;2022-11-15T05:26:38;46.78;;;19.48;;
68192;SDS011;55012;47.562;18.414;2022-11-15T05:29:04;45.22;;;18.90;;
68192;SDS011;55012;47.562;18.414;2022-11-15T05:31:29;43.50;;;20.05;;
68192;SDS011;55012;47.562;18.414;2022-11-15T05:33:55;41.03;;;18.88;;
68192;SDS011;55012;47.562;18.414;2022-11-15T05:36:29;34.50;;;17.95;;
68192;SDS011;55012;47.562;18.414;2022-11-15T05:39:00;38.25;;;18.13;;
68192;SDS011;55012;47.562;18.414;2022-11-15T05:41:30;34.45;;;16.98;;
68192;SDS011;55012;47.562;18.414;2022-11-15T05:44:05;32.35;;;16.63;;
68192;SDS011;55012;47.562;18.414;2022-11-15T05:46:34;32.92;;;16.33;;
68192;SDS011;55012;47.562;18.414;2022-11-15T05:49:02;37.35;;;16.83;;
68192;SDS011;55012;47.562;18.414;2022-11-15T05:51:31;39.63;;;16.83;;
68192;SDS011;55012;47.562;18.414;2022-11-15T05:53:56;31.77;;;16.55;;
68192;SDS011;55012;47.562;18.414;2022-11-15T05:56:24;35.63;;;15.85;;
68192;SDS011;55012;47.562;18.414;2022-11-15T05:58:51;26.38;;;14.43;;
68192;SDS011;55012;47.562;18.414;2022-11-15T06:01:19;29.38;;;14.30;;
68192;SDS011;55012;47.562;18.414;2022-11-15T06:03:44;28.73;;;14.75;;
68192;SDS011;55012;47.562;18.414;2022-11-15T06:06:10;33.90;;;14.95;;
68192;SDS011;55012;47.562;18.414;2022-11-15T06:08:35;31.17;;;14.30;;
68192;SDS011;55012;47.562;18.414;2022-11-15T06:11:04;28.38;;;14.60;;
68192;SDS011;55012;47.562;18.414;2022-11-15T06:13:30;31.00;;;14.48;;
68192;SDS011;55012;47.562;18.414;2022-11-15T06:15:57;34.40;;;16.10;;
68192;SDS011;55012;47.562;18.414;2022-11-15T06:18:23;44.30;;;19.85;;
68192;SDS011;55012;47.562;18.414;2022-11-15T06:20:48;45.58;;;20.27;;
68192;SDS011;55012;47.562;18.414;2022-11-15T06:23:14;43.83;;;18.65;;
68192;SDS011;55012;47.562;18.414;2022-11-15T06:25:39;37.63;;;16.45;;
68192;SDS011;55012;47.562;18.414;2022-11-15T06:28:05;48.63;;;21.15;;
68192;SDS011;55012;47.562;18.414;2022-11-15T06:30:30;55.85;;;21.83;;
68192;SDS011;55012;47.562;18.414;2022-11-15T06:32:59;42.80;;;16.25;;
68192;SDS011;55012;47.562;18.414;2022-11-15T06:35:26;26.30;;;13.55;;
68192;SDS011;55012;47.562;18.414;2022-11-15T06:37:52;27.55;;;13.55;;
68192;SDS011;55012;47.562;18.414;2022-11-15T06:40:18;29.20;;;13.55;;
68192;SDS011;55012;47.562;18.414;2022-11-15T06:42:43;32.80;;;14.90;;
68192;SDS011;55012;47.562;18.414;2022-11-15T06:45:09;29.33;;;14.23;;
68192;SDS011;55012;47.562;18.414;2022-11-15T06:47:34;30.90;;;14.30;;
68192;SDS011;55012;47.562;18.414;2022-11-15T06:50:00;29.42;;;14.75;;
68192;SDS011;55012;47.562;18.414;2022-11-15T06:52:25;29.00;;;14.30;;
68192;SDS011;55012;47.562;18.414;2022-11-15T06:54:51;31.63;;;15.20;;
68192;SDS011;55012;47.562;18.414;2022-11-15T06:57:16;34.33;;;15.35;;
68192;SDS011;55012;47.562;18.414;2022-11-15T06:59:42;31.13;;;14.82;;
68192;SDS011;55012;47.562;18.414;2022-11-15T07:02:14;27.98;;;13.55;;
68192;SDS011;55012;47.562;18.414;2022-11-15T07:04:39;27.40;;;14.45;;
68192;SDS011;55012;47.562;18.414;2022-11-15T07:07:05;44.00;;;19.05;;
68192;SDS011;55012;47.562;18.414;2022-11-15T07:09:30;40.53;;;19.10;;
68192;SDS011;55012;47.562;18.414;2022-11-15T07:11:56;39.85;;;16.80;;
68192;SDS011;55012;47.562;18.414;2022-11-15T07:14:21;33.38;;;15.35;;
68192;SDS011;55012;47.562;18.414;2022-11-15T07:16:46;33.85;;;14.88;;
68192;SDS011;55012;47.562;18.414;2022-11-15T07:19:12;36.65;;;14.45;;
68192;SDS011;55012;47.562;18.414;2022-11-15T07:21:38;37.97;;;16.00;;
68192;SDS011;55012;47.562;18.414;2022-11-15T07:24:03;45.85;;;18.30;;
68192;SDS011;55012;47.562;18.414;2022-11-15T07:26:29;41.30;;;18.63;;
68192;SDS011;55012;47.562;18.414;2022-11-15T07:28:54;34.60;;;16.65;;
68192;SDS011;55012;47.562;18.414;2022-11-15T07:31:20;30.17;;;14.68;;
68192;SDS011;55012;47.562;18.414;2022-11-15T07:33:46;34.30;;;15.13;;
68192;SDS011;55012;47.562;18.414;2022-11-15T07:36:11;35.40;;;15.75;;
68192;SDS011;55012;47.562;18.414;2022-11-15T07:38:36;34.95;;;16.67;;
68192;SDS011;55012;47.562;18.414;2022-11-15T07:41:03;44.22;;;19.08;;
68192;SDS011;55012;47.562;18.414;2022-11-15T07:43:29;52.80;;;23.88;;
68192;SDS011;55012;47.562;18.414;2022-11-15T07:45:57;68.07;;;27.65;;
68192;SDS011;55012;47.562;18.414;2022-11-15T07:48:23;71.95;;;30.45;;
68192;SDS011;55012;47.562;18.414;2022-11-15T07:50:48;65.88;;;29.13;;
68192;SDS011;55012;47.562;18.414;2022-11-15T07:53:14;61.92;;;26.55;;
68192;SDS011;55012;47.562;18.414;2022-11-15T07:55:40;54.88;;;25.75;;
68192;SDS011;55012;47.562;18.414;2022-11-15T07:58:10;54.45;;;25.55;;
68192;SDS011;55012;47.562;18.414;2022-11-15T08:00:37;49.83;;;23.77;;
68192;SDS011;55012;47.562;18.414;2022-11-15T08:05:28;52.42;;;22.23;;
68192;SDS011;55012;47.562;18.414;2022-11-15T08:07:57;46.38;;;20.95;;
68192;SDS011;55012;47.562;18.414;2022-11-15T08:10:22;38.83;;;18.77;;
68192;SDS011;55012;47.562;18.414;2022-11-15T08:12:56;41.90;;;18.55;;
68192;SDS011;55012;47.562;18.414;2022-11-15T08:15:29;34.15;;;17.10;;
68192;SDS011;55012;47.562;18.414;2022-11-15T08:17:59;35.13;;;18.55;;
68192;SDS011;55012;47.562;18.414;2022-11-15T08:20:27;35.05;;;18.42;;
68192;SDS011;55012;47.562;18.414;2022-11-15T08:22:55;40.50;;;19.95;;
68192;SDS011;55012;47.562;18.414;2022-11-15T08:25:24;41.28;;;20.20;;
68192;SDS011;55012;47.562;18.414;2022-11-15T08:27:55;37.38;;;19.42;;
68192;SDS011;55012;47.562;18.414;2022-11-15T08:30:21;42.15;;;20.38;;
68192;SDS011;55012;47.562;18.414;2022-11-15T08:32:47;37.85;;;19.30;;
68192;SDS011;55012;47.562;18.414;2022-11-15T08:35:15;38.95;;;18.75;;
68192;SDS011;55012;47.562;18.414;2022-11-15T08:37:41;36.67;;;19.35;;
68192;SDS011;55012;47.562;18.414;2022-11-15T08:40:07;39.85;;;20.85;;
68192;SDS011;55012;47.562;18.414;2022-11-15T08:42:32;44.90;;;21.65;;
68192;SDS011;55012;47.562;18.414;2022-11-15T08:44:58;46.03;;;22.73;;
68192;SDS011;55012;47.562;18.414;2022-11-15T08:47:25;43.75;;;23.23;;
68192;SDS011;55012;47.562;18.414;2022-11-15T08:49:51;42.17;;;22.45;;
68192;SDS011;55012;47.562;18.414;2022-11-15T08:52:16;49.13;;;23.38;;
68192;SDS011;55012;47.562;18.414;2022-11-15T08:54:42;47.08;;;23.75;;
68192;SDS011;55012;47.562;18.414;2022-11-15T08:57:07;48.30;;;23.67;;
68192;SDS011;55012;47.562;18.414;2022-11-15T08:59:34;46.17;;;21.02;;
68192;SDS011;55012;47.562;18.414;2022-11-15T09:02:00;42.15;;;20.50;;
68192;SDS011;55012;47.562;18.414;2022-11-15T09:04:26;43.03;;;20.25;;
68192;SDS011;55012;47.562;18.414;2022-11-15T09:06:51;43.00;;;20.88;;
68192;SDS011;55012;47.562;18.414;2022-11-15T09:09:17;41.63;;;20.23;;
68192;SDS011;55012;47.562;18.414;2022-11-15T09:11:42;36.42;;;18.83;;
68192;SDS011;55012;47.562;18.414;2022-11-15T09:14:10;35.90;;;18.33;;
68192;SDS011;55012;47.562;18.414;2022-11-15T09:16:37;35.08;;;18.08;;
68192;SDS011;55012;47.562;18.414;2022-11-15T09:19:02;36.85;;;18.30;;
68192;SDS011;55012;47.562;18.414;2022-11-15T09:21:28;34.85;;;17.63;;
68192;SDS011;55012;47.562;18.414;2022-11-15T09:23:54;35.05;;;18.05;;
68192;SDS011;55012;47.562;18.414;2022-11-15T09:26:20;36.83;;;19.73;;
68192;SDS011;55012;47.562;18.414;2022-11-15T09:28:45;36.45;;;18.55;;
68192;SDS011;55012;47.562;18.414;2022-11-15T09:31:11;34.35;;;18.60;;
68192;SDS011;55012;47.562;18.414;2022-11-15T09:33:36;38.03;;;19.70;;
68192;SDS011;55012;47.562;18.414;2022-11-15T09:36:03;39.08;;;19.48;;
68192;SDS011;55012;47.562;18.414;2022-11-15T09:38:30;38.70;;;19.67;;
68192;SDS011;55012;47.562;18.414;2022-11-15T09:48:50;40.17;;;21.48;;
68192;SDS011;55012;47.562;18.414;2022-11-15T09:56:38;42.63;;;21.42;;
68192;SDS011;55012;47.562;18.414;2022-11-15T10:02:22;40.72;;;21.35;;
68192;SDS011;55012;47.562;18.414;2022-11-15T10:04:43;42.53;;;21.30;;
68192;SDS011;55012;47.562;18.414;2022-11-15T10:07:23;42.75;;;20.85;;
68192;SDS011;55012;47.562;18.414;2022-11-15T10:09:56;42.25;;;21.90;;
68192;SDS011;55012;47.562;18.414;2022-11-15T10:12:34;39.00;;;21.13;;
68192;SDS011;55012;47.562;18.414;2022-11-15T10:15:01;44.53;;;22.52;;
68192;SDS011;55012;47.562;18.414;2022-11-15T10:20:28;43.55;;;21.75;;
68192;SDS011;55012;47.562;18.414;2022-11-15T10:22:59;45.05;;;21.92;;
68192;SDS011;55012;47.562;18.414;2022-11-15T10:25:30;45.33;;;22.02;;
68192;SDS011;55012;47.562;18.414;2022-11-15T10:30:38;47.13;;;23.08;;
68192;SDS011;55012;47.562;18.414;2022-11-15T10:43:43;51.28;;;23.98;;
68192;SDS011;55012;47.562;18.414;2022-11-15T10:46:20;52.67;;;24.83;;
68192;SDS011;55012;47.562;18.414;2022-11-15T10:48:46;54.53;;;24.77;;
68192;SDS011;55012;47.562;18.414;2022-11-15T10:51:22;59.85;;;27.13;;
68192;SDS011;55012;47.562;18.414;2022-11-15T10:53:53;48.30;;;23.30;;
68192;SDS011;55012;47.562;18.414;2022-11-15T10:56:21;54.88;;;24.85;;
68192;SDS011;55012;47.562;18.414;2022-11-15T10:58:56;56.83;;;24.77;;
68192;SDS011;55012;47.562;18.414;2022-11-15T11:01:23;52.88;;;24.20;;
68192;SDS011;55012;47.562;18.414;2022-11-15T11:04:04;52.58;;;24.77;;
68192;SDS011;55012;47.562;18.414;2022-11-15T11:06:45;54.00;;;25.80;;
68192;SDS011;55012;47.562;18.414;2022-11-15T11:09:21;56.33;;;24.42;;
68192;SDS011;55012;47.562;18.414;2022-11-15T11:11:54;48.85;;;23.55;;
68192;SDS011;55012;47.562;18.414;2022-11-15T11:19:56;55.25;;;25.73;;
68192;SDS011;55012;47.562;18.414;2022-11-15T11:25:35;58.13;;;25.50;;
68192;SDS011;55012;47.562;18.414;2022-11-15T11:28:15;57.95;;;27.17;;
68192;SDS011;55012;47.562;18.414;2022-11-15T11:31:17;63.13;;;28.52;;
68192;SDS011;55012;47.562;18.414;2022-11-15T11:47:51;57.47;;;26.92;;
68192;SDS011;55012;47.562;18.414;2022-11-15T11:50:33;59.47;;;25.90;;
68192;SDS011;55012;47.562;18.414;2022-11-15T11:55:32;63.67;;;28.33;;
68192;SDS011;55012;47.562;18.414;2022-11-15T12:00:50;68.22;;;32.70;;
68192;SDS011;55012;47.562;18.414;2022-11-15T12:05:56;71.70;;;29.77;;
68192;SDS011;55012;47.562;18.414;2022-11-15T12:11:14;71.32;;;30.30;;
68192;SDS011;55012;47.562;18.414;2022-11-15T12:13:45;63.58;;;28.27;;
68192;SDS011;55012;47.562;18.414;2022-11-15T12:16:18;78.50;;;32.85;;
68192;SDS011;55012;47.562;18.414;2022-11-15T12:18:49;79.75;;;34.58;;
68192;SDS011;55012;47.562;18.414;2022-11-15T12:27:13;71.80;;;29.30;;
68192;SDS011;55012;47.562;18.414;2022-11-15T12:29:47;70.72;;;29.55;;
68192;SDS011;55012;47.562;18.414;2022-11-15T12:35:03;63.65;;;26.70;;
68192;SDS011;55012;47.562;18.414;2022-11-15T12:42:41;66.72;;;28.20;;
68192;SDS011;55012;47.562;18.414;2022-11-15T12:47:52;66.68;;;28.02;;
68192;SDS011;55012;47.562;18.414;2022-11-15T12:50:44;68.10;;;29.02;;
68192;SDS011;55012;47.562;18.414;2022-11-15T12:58:57;73.90;;;29.70;;
68192;SDS011;55012;47.562;18.414;2022-11-15T13:12:47;76.25;;;34.17;;
68192;SDS011;55012;47.562;18.414;2022-11-15T13:17:56;83.10;;;33.95;;
68192;SDS011;55012;47.562;18.414;2022-11-15T13:20:23;76.88;;;32.40;;
68192;SDS011;55012;47.562;18.414;2022-11-15T13:30:38;101.03;;;44.45;;
68192;SDS011;55012;47.562;18.414;2022-11-15T13:35:56;75.97;;;34.70;;
68192;SDS011;55012;47.562;18.414;2022-11-15T13:40:49;64.57;;;28.48;;
68192;SDS011;55012;47.562;18.414;2022-11-15T13:43:34;68.97;;;28.98;;
68192;SDS011;55012;47.562;18.414;2022-11-15T13:46:05;74.05;;;31.17;;
68192;SDS011;55012;47.562;18.414;2022-11-15T13:48:32;80.50;;;34.03;;
68192;SDS011;55012;47.562;18.414;2022-11-15T13:50:59;72.85;;;30.73;;
68192;SDS011;55012;47.562;18.414;2022-11-15T13:53:31;63.67;;;27.45;;
68192;SDS011;55012;47.562;18.414;2022-11-15T13:55:58;56.85;;;25.45;;
68192;SDS011;55012;47.562;18.414;2022-11-15T13:58:24;58.20;;;25.42;;
68192;SDS011;55012;47.562;18.414;2022-11-15T14:00:58;56.20;;;24.75;;
68192;SDS011;55012;47.562;18.414;2022-11-15T14:03:26;56.70;;;25.13;;
68192;SDS011;55012;47.562;18.414;2022-11-15T14:06:12;59.25;;;24.90;;
68192;SDS011;55012;47.562;18.414;2022-11-15T14:11:19;62.80;;;25.63;;
68192;SDS011;55012;47.562;18.414;2022-11-15T14:16:32;65.05;;;26.38;;
68192;SDS011;55012;47.562;18.414;2022-11-15T14:19:02;59.03;;;25.45;;
68192;SDS011;55012;47.562;18.414;2022-11-15T14:21:30;61.00;;;26.05;;
68192;SDS011;55012;47.562;18.414;2022-11-15T14:24:15;60.95;;;25.92;;
68192;SDS011;55012;47.562;18.414;2022-11-15T14:26:44;63.20;;;26.30;;
68192;SDS011;55012;47.562;18.414;2022-11-15T14:29:26;65.55;;;26.80;;
68192;SDS011;55012;47.562;18.414;2022-11-15T14:31:54;66.93;;;27.52;;
68192;SDS011;55012;47.562;18.414;2022-11-15T14:34:37;69.93;;;28.37;;
68192;SDS011;55012;47.562;18.414;2022-11-15T14:37:03;68.90;;;28.45;;
68192;SDS011;55012;47.562;18.414;2022-11-15T14:39:28;75.40;;;30.23;;
68192;SDS011;55012;47.562;18.414;2022-11-15T14:41:53;73.10;;;29.40;;
68192;SDS011;55012;47.562;18.414;2022-11-15T14:44:19;74.80;;;30.25;;
68192;SDS011;55012;47.562;18.414;2022-11-15T14:46:46;75.60;;;28.98;;
68192;SDS011;55012;47.562;18.414;2022-11-15T14:49:13;75.05;;;29.83;;
68192;SDS011;55012;47.562;18.414;2022-11-15T14:51:40;75.38;;;29.60;;
68192;SDS011;55012;47.562;18.414;2022-11-15T14:54:08;74.40;;;30.15;;
68192;SDS011;55012;47.562;18.414;2022-11-15T14:56:35;72.85;;;28.88;;
68192;SDS011;55012;47.562;18.414;2022-11-15T14:59:00;75.45;;;31.10;;
68192;SDS011;55012;47.562;18.414;2022-11-15T15:01:26;75.25;;;30.48;;
68192;SDS011;55012;47.562;18.414;2022-11-15T15:03:52;74.70;;;30.60;;
68192;SDS011;55012;47.562;18.414;2022-11-15T15:06:23;78.45;;;30.15;;
68192;SDS011;55012;47.562;18.414;2022-11-15T15:08:48;75.00;;;30.13;;
68192;SDS011;55012;47.562;18.414;2022-11-15T15:11:20;78.82;;;30.60;;
68192;SDS011;55012;47.562;18.414;2022-11-15T15:13:48;79.40;;;31.00;;
68192;SDS011;55012;47.562;18.414;2022-11-15T15:16:13;74.40;;;29.38;;
68192;SDS011;55012;47.562;18.414;2022-11-15T15:18:39;74.78;;;29.98;;
68192;SDS011;55012;47.562;18.414;2022-11-15T15:21:04;75.35;;;30.80;;
68192;SDS011;55012;47.562;18.414;2022-11-15T15:23:51;78.13;;;30.92;;
68192;SDS011;55012;47.562;18.414;2022-11-15T15:26:19;83.90;;;32.03;;
68192;SDS011;55012;47.562;18.414;2022-11-15T15:28:44;81.35;;;31.23;;
68192;SDS011;55012;47.562;18.414;2022-11-15T15:31:10;84.15;;;31.58;;
68192;SDS011;55012;47.562;18.414;2022-11-15T15:33:36;77.40;;;29.33;;
68192;SDS011;55012;47.562;18.414;2022-11-15T15:36:02;76.15;;;29.63;;
68192;SDS011;55012;47.562;18.414;2022-11-15T15:38:28;72.90;;;29.13;;
68192;SDS011;55012;47.562;18.414;2022-11-15T15:40:53;79.30;;;30.20;;
68192;SDS011;55012;47.562;18.414;2022-11-15T15:43:19;79.07;;;30.38;;
68192;SDS011;55012;47.562;18.414;2022-11-15T15:45:45;81.28;;;30.40;;
68192;SDS011;55012;47.562;18.414;2022-11-15T15:48:14;76.28;;;30.58;;
68192;SDS011;55012;47.562;18.414;2022-11-15T15:50:41;81.03;;;30.98;;
68192;SDS011;55012;47.562;18.414;2022-11-15T15:53:08;77.47;;;30.95;;
68192;SDS011;55012;47.562;18.414;2022-11-15T15:55:35;82.70;;;32.35;;
68192;SDS011;55012;47.562;18.414;2022-11-15T15:58:02;81.10;;;31.75;;
68192;SDS011;55012;47.562;18.414;2022-11-15T16:00:27;82.35;;;31.48;;
68192;SDS011;55012;47.562;18.414;2022-11-15T16:02:53;77.55;;;29.73;;
68192;SDS011;55012;47.562;18.414;2022-11-15T16:05:19;90.85;;;31.88;;
68192;SDS011;55012;47.562;18.414;2022-11-15T16:07:46;76.38;;;29.13;;
68192;SDS011;55012;47.562;18.414;2022-11-15T16:10:17;79.60;;;28.55;;
68192;SDS011;55012;47.562;18.414;2022-11-15T16:12:47;81.13;;;30.08;;
68192;SDS011;55012;47.562;18.414;2022-11-15T16:15:13;78.88;;;30.33;;
68192;SDS011;55012;47.562;18.414;2022-11-15T16:17:41;83.60;;;31.13;;
68192;SDS011;55012;47.562;18.414;2022-11-15T16:22:51;76.47;;;28.92;;
68192;SDS011;55012;47.562;18.414;2022-11-15T16:25:17;74.88;;;28.45;;
68192;SDS011;55012;47.562;18.414;2022-11-15T16:27:42;77.18;;;29.73;;
68192;SDS011;55012;47.562;18.414;2022-11-15T16:30:16;78.32;;;28.25;;
68192;SDS011;55012;47.562;18.414;2022-11-15T16:32:44;79.32;;;29.30;;
68192;SDS011;55012;47.562;18.414;2022-11-15T16:35:10;78.93;;;29.17;;
68192;SDS011;55012;47.562;18.414;2022-11-15T16:37:40;79.10;;;28.67;;
68192;SDS011;55012;47.562;18.414;2022-11-15T16:42:55;80.93;;;30.00;;
68192;SDS011;55012;47.562;18.414;2022-11-15T16:45:24;85.38;;;30.48;;
68192;SDS011;55012;47.562;18.414;2022-11-15T16:47:53;92.00;;;31.00;;
68192;SDS011;55012;47.562;18.414;2022-11-15T16:50:20;85.35;;;30.58;;
68192;SDS011;55012;47.562;18.414;2022-11-15T16:52:54;94.65;;;33.13;;
68192;SDS011;55012;47.562;18.414;2022-11-15T16:55:21;94.32;;;32.95;;
68192;SDS011;55012;47.562;18.414;2022-11-15T16:57:48;93.68;;;32.50;;
68192;SDS011;55012;47.562;18.414;2022-11-15T17:00:15;88.07;;;32.45;;
68192;SDS011;55012;47.562;18.414;2022-11-15T17:02:43;85.38;;;31.80;;
68192;SDS011;55012;47.562;18.414;2022-11-15T17:05:10;89.97;;;31.30;;
68192;SDS011;55012;47.562;18.414;2022-11-15T17:07:36;86.82;;;30.55;;
68192;SDS011;55012;47.562;18.414;2022-11-15T17:10:02;84.53;;;30.15;;